sensor_id;sensor_type;location;lat;lon;timestamp;temperature;humidity
27114;DHT22;14648;49.730;8.614;2024-02-26T00:01:43;11.10;43.50
27114;DHT22;14648;49.730;8.614;2024-02-26T00:04:09;11.00;43.40
27114;DHT22;14648;49.730;8.614;2024-02-26T00:06:37;11.00;43.50
27114;DHT22;14648;49.730;8.614;2024-02-26T00:09:06;11.00;43.60
27114;DHT22;14648;49.730;8.614;2024-02-26T00:11:32;10.90;43.70
27114;DHT22;14648;49.730;8.614;2024-02-26T00:13:58;10.90;43.80
27114;DHT22;14648;49.730;8.614;2024-02-26T00:16:24;10.90;43.80
27114;DHT22;14648;49.730;8.614;2024-02-26T00:18:50;10.90;43.80
27114;DHT22;14648;49.730;8.614;2024-02-26T00:21:16;10.90;43.80
27114;DHT22;14648;49.730;8.614;2024-02-26T00:23:41;10.90;43.90
27114;DHT22;14648;49.730;8.614;2024-02-26T00:26:07;10.80;43.80
27114;DHT22;14648;49.730;8.614;2024-02-26T00:28:33;10.80;43.80
27114;DHT22;14648;49.730;8.614;2024-02-26T00:30:59;10.80;43.80
27114;DHT22;14648;49.730;8.614;2024-02-26T00:33:25;10.80;43.90
27114;DHT22;14648;49.730;8.614;2024-02-26T00:35:51;10.80;43.90
27114;DHT22;14648;49.730;8.614;2024-02-26T00:38:17;10.70;44.00
27114;DHT22;14648;49.730;8.614;2024-02-26T00:40:42;10.70;44.00
27114;DHT22;14648;49.730;8.614;2024-02-26T00:43:08;10.60;44.00
27114;DHT22;14648;49.730;8.614;2024-02-26T00:45:34;10.60;44.10
27114;DHT22;14648;49.730;8.614;2024-02-26T00:48:00;10.50;44.20
27114;DHT22;14648;49.730;8.614;2024-02-26T00:50:30;10.50;44.30
27114;DHT22;14648;49.730;8.614;2024-02-26T00:52:56;10.50;44.30
27114;DHT22;14648;49.730;8.614;2024-02-26T00:55:22;10.40;44.30
27114;DHT22;14648;49.730;8.614;2024-02-26T00:57:47;10.40;44.40
27114;DHT22;14648;49.730;8.614;2024-02-26T01:00:13;10.30;44.40
27114;DHT22;14648;49.730;8.614;2024-02-26T01:02:40;10.30;44.40
27114;DHT22;14648;49.730;8.614;2024-02-26T01:05:07;10.30;44.50
27114;DHT22;14648;49.730;8.614;2024-02-26T01:07:36;10.30;44.60
27114;DHT22;14648;49.730;8.614;2024-02-26T01:10:03;10.20;44.50
27114;DHT22;14648;49.730;8.614;2024-02-26T01:12:29;10.20;44.50
27114;DHT22;14648;49.730;8.614;2024-02-26T01:14:55;10.20;44.60
27114;DHT22;14648;49.730;8.614;2024-02-26T01:17:21;10.10;44.70
27114;DHT22;14648;49.730;8.614;2024-02-26T01:19:46;10.10;44.80
27114;DHT22;14648;49.730;8.614;2024-02-26T01:22:12;10.00;44.80
27114;DHT22;14648;49.730;8.614;2024-02-26T01:24:38;10.00;44.80
27114;DHT22;14648;49.730;8.614;2024-02-26T01:27:04;10.00;44.90
27114;DHT22;14648;49.730;8.614;2024-02-26T01:29:30;10.00;44.90
27114;DHT22;14648;49.730;8.614;2024-02-26T01:31:56;10.00;44.90
27114;DHT22;14648;49.730;8.614;2024-02-26T01:34:21;9.90;45.00
27114;DHT22;14648;49.730;8.614;2024-02-26T01:36:47;9.90;45.10
27114;DHT22;14648;49.730;8.614;2024-02-26T01:39:13;9.90;45.20
27114;DHT22;14648;49.730;8.614;2024-02-26T01:41:40;9.90;45.20
27114;DHT22;14648;49.730;8.614;2024-02-26T01:44:06;9.90;45.20
27114;DHT22;14648;49.730;8.614;2024-02-26T01:46:34;9.80;45.10
27114;DHT22;14648;49.730;8.614;2024-02-26T01:49:01;9.80;45.20
27114;DHT22;14648;49.730;8.614;2024-02-26T01:51:27;9.80;45.30
27114;DHT22;14648;49.730;8.614;2024-02-26T01:53:54;9.70;45.40
27114;DHT22;14648;49.730;8.614;2024-02-26T01:56:21;9.70;45.50
27114;DHT22;14648;49.730;8.614;2024-02-26T01:58:48;9.70;45.60
27114;DHT22;14648;49.730;8.614;2024-02-26T02:01:15;9.70;45.70
27114;DHT22;14648;49.730;8.614;2024-02-26T02:03:43;9.60;45.60
27114;DHT22;14648;49.730;8.614;2024-02-26T02:06:09;9.60;45.70
27114;DHT22;14648;49.730;8.614;2024-02-26T02:08:35;9.60;45.80
27114;DHT22;14648;49.730;8.614;2024-02-26T02:11:01;9.50;45.80
27114;DHT22;14648;49.730;8.614;2024-02-26T02:13:27;9.50;45.80
27114;DHT22;14648;49.730;8.614;2024-02-26T02:15:53;9.50;45.90
27114;DHT22;14648;49.730;8.614;2024-02-26T02:18:19;9.40;46.00
27114;DHT22;14648;49.730;8.614;2024-02-26T02:20:45;9.50;46.10
27114;DHT22;14648;49.730;8.614;2024-02-26T02:23:10;9.40;46.10
27114;DHT22;14648;49.730;8.614;2024-02-26T02:25:36;9.40;46.10
27114;DHT22;14648;49.730;8.614;2024-02-26T02:28:02;9.40;46.20
27114;DHT22;14648;49.730;8.614;2024-02-26T02:30:30;9.40;46.30
27114;DHT22;14648;49.730;8.614;2024-02-26T02:32:57;9.40;46.30
27114;DHT22;14648;49.730;8.614;2024-02-26T02:35:26;9.40;46.40
27114;DHT22;14648;49.730;8.614;2024-02-26T02:37:52;9.40;46.40
27114;DHT22;14648;49.730;8.614;2024-02-26T02:40:18;9.40;46.30
27114;DHT22;14648;49.730;8.614;2024-02-26T02:42:44;9.40;46.30
27114;DHT22;14648;49.730;8.614;2024-02-26T02:45:10;9.40;46.30
27114;DHT22;14648;49.730;8.614;2024-02-26T02:47:36;9.40;46.30
27114;DHT22;14648;49.730;8.614;2024-02-26T02:50:03;9.50;46.40
27114;DHT22;14648;49.730;8.614;2024-02-26T02:52:29;9.50;46.40
27114;DHT22;14648;49.730;8.614;2024-02-26T02:54:55;9.40;46.30
27114;DHT22;14648;49.730;8.614;2024-02-26T02:57:21;9.40;46.30
27114;DHT22;14648;49.730;8.614;2024-02-26T02:59:46;9.50;46.40
27114;DHT22;14648;49.730;8.614;2024-02-26T03:02:12;9.40;46.30
27114;DHT22;14648;49.730;8.614;2024-02-26T03:04:38;9.50;46.50
27114;DHT22;14648;49.730;8.614;2024-02-26T03:07:04;9.50;46.50
27114;DHT22;14648;49.730;8.614;2024-02-26T03:09:29;9.40;46.50
27114;DHT22;14648;49.730;8.614;2024-02-26T03:11:55;9.40;46.60
27114;DHT22;14648;49.730;8.614;2024-02-26T03:14:21;9.40;46.50
27114;DHT22;14648;49.730;8.614;2024-02-26T03:16:47;9.40;46.60
27114;DHT22;14648;49.730;8.614;2024-02-26T03:19:15;9.40;46.70
27114;DHT22;14648;49.730;8.614;2024-02-26T03:21:42;9.30;46.90
27114;DHT22;14648;49.730;8.614;2024-02-26T03:24:07;9.30;46.90
27114;DHT22;14648;49.730;8.614;2024-02-26T03:26:38;9.30;47.10
27114;DHT22;14648;49.730;8.614;2024-02-26T03:29:04;9.30;47.20
27114;DHT22;14648;49.730;8.614;2024-02-26T03:31:30;9.20;47.20
27114;DHT22;14648;49.730;8.614;2024-02-26T03:33:56;9.20;47.30
27114;DHT22;14648;49.730;8.614;2024-02-26T03:36:22;9.20;47.40
27114;DHT22;14648;49.730;8.614;2024-02-26T03:38:50;9.20;47.50
27114;DHT22;14648;49.730;8.614;2024-02-26T03:41:16;9.20;47.70
27114;DHT22;14648;49.730;8.614;2024-02-26T03:43:42;9.10;47.80
27114;DHT22;14648;49.730;8.614;2024-02-26T03:46:08;9.10;48.00
27114;DHT22;14648;49.730;8.614;2024-02-26T03:48:36;9.00;48.10
27114;DHT22;14648;49.730;8.614;2024-02-26T03:51:02;9.00;48.10
27114;DHT22;14648;49.730;8.614;2024-02-26T03:53:28;9.00;48.20
27114;DHT22;14648;49.730;8.614;2024-02-26T03:55:54;9.00;48.40
27114;DHT22;14648;49.730;8.614;2024-02-26T03:58:21;9.00;48.40
27114;DHT22;14648;49.730;8.614;2024-02-26T04:00:47;9.00;49.20
27114;DHT22;14648;49.730;8.614;2024-02-26T04:03:15;9.00;48.60
27114;DHT22;14648;49.730;8.614;2024-02-26T04:05:41;8.90;49.40
27114;DHT22;14648;49.730;8.614;2024-02-26T04:08:07;8.90;48.80
27114;DHT22;14648;49.730;8.614;2024-02-26T04:10:36;9.00;48.90
27114;DHT22;14648;49.730;8.614;2024-02-26T04:13:04;8.90;49.00
27114;DHT22;14648;49.730;8.614;2024-02-26T04:15:31;8.90;49.00
27114;DHT22;14648;49.730;8.614;2024-02-26T04:17:57;8.90;49.10
27114;DHT22;14648;49.730;8.614;2024-02-26T04:20:23;8.90;49.20
27114;DHT22;14648;49.730;8.614;2024-02-26T04:22:49;8.90;49.30
27114;DHT22;14648;49.730;8.614;2024-02-26T04:25:15;8.90;49.40
27114;DHT22;14648;49.730;8.614;2024-02-26T04:27:41;8.90;49.50
27114;DHT22;14648;49.730;8.614;2024-02-26T04:30:07;8.80;49.50
27114;DHT22;14648;49.730;8.614;2024-02-26T04:32:33;8.80;49.60
27114;DHT22;14648;49.730;8.614;2024-02-26T04:35:02;8.80;49.80
27114;DHT22;14648;49.730;8.614;2024-02-26T04:37:28;8.80;49.90
27114;DHT22;14648;49.730;8.614;2024-02-26T04:39:58;8.80;50.00
27114;DHT22;14648;49.730;8.614;2024-02-26T04:42:24;8.70;50.00
27114;DHT22;14648;49.730;8.614;2024-02-26T04:44:50;8.80;50.20
27114;DHT22;14648;49.730;8.614;2024-02-26T04:47:16;8.70;50.30
27114;DHT22;14648;49.730;8.614;2024-02-26T04:49:41;8.70;50.40
27114;DHT22;14648;49.730;8.614;2024-02-26T04:52:07;8.70;50.50
27114;DHT22;14648;49.730;8.614;2024-02-26T04:54:33;8.70;50.60
27114;DHT22;14648;49.730;8.614;2024-02-26T04:56:59;8.70;50.70
27114;DHT22;14648;49.730;8.614;2024-02-26T04:59:24;8.70;50.80
27114;DHT22;14648;49.730;8.614;2024-02-26T05:01:50;8.60;50.80
27114;DHT22;14648;49.730;8.614;2024-02-26T05:04:18;8.60;50.80
27114;DHT22;14648;49.730;8.614;2024-02-26T05:06:44;8.60;50.90
27114;DHT22;14648;49.730;8.614;2024-02-26T05:09:09;8.60;50.90
27114;DHT22;14648;49.730;8.614;2024-02-26T05:11:35;8.60;50.90
27114;DHT22;14648;49.730;8.614;2024-02-26T05:14:01;8.60;50.90
27114;DHT22;14648;49.730;8.614;2024-02-26T05:16:26;8.60;50.80
27114;DHT22;14648;49.730;8.614;2024-02-26T05:18:53;8.70;50.90
27114;DHT22;14648;49.730;8.614;2024-02-26T05:21:18;8.70;51.30
27114;DHT22;14648;49.730;8.614;2024-02-26T05:23:44;8.70;51.60
27114;DHT22;14648;49.730;8.614;2024-02-26T05:26:10;8.70;50.90
27114;DHT22;14648;49.730;8.614;2024-02-26T05:28:36;8.70;50.90
27114;DHT22;14648;49.730;8.614;2024-02-26T05:31:05;8.80;50.90
27114;DHT22;14648;49.730;8.614;2024-02-26T05:33:31;8.80;50.90
27114;DHT22;14648;49.730;8.614;2024-02-26T05:35:57;8.90;51.10
27114;DHT22;14648;49.730;8.614;2024-02-26T05:38:29;8.80;51.00
27114;DHT22;14648;49.730;8.614;2024-02-26T05:40:54;8.80;51.10
27114;DHT22;14648;49.730;8.614;2024-02-26T05:43:20;8.90;51.20
27114;DHT22;14648;49.730;8.614;2024-02-26T05:45:46;8.90;51.30
27114;DHT22;14648;49.730;8.614;2024-02-26T05:48:12;8.90;51.30
27114;DHT22;14648;49.730;8.614;2024-02-26T05:50:37;8.90;51.40
27114;DHT22;14648;49.730;8.614;2024-02-26T05:53:06;8.90;51.50
27114;DHT22;14648;49.730;8.614;2024-02-26T05:55:31;8.90;51.50
27114;DHT22;14648;49.730;8.614;2024-02-26T05:57:57;8.90;51.60
27114;DHT22;14648;49.730;8.614;2024-02-26T06:00:23;8.90;51.70
27114;DHT22;14648;49.730;8.614;2024-02-26T06:02:48;8.90;51.70
27114;DHT22;14648;49.730;8.614;2024-02-26T06:05:14;8.90;51.80
27114;DHT22;14648;49.730;8.614;2024-02-26T06:07:40;8.90;51.80
27114;DHT22;14648;49.730;8.614;2024-02-26T06:10:06;8.90;51.90
27114;DHT22;14648;49.730;8.614;2024-02-26T06:12:35;8.90;52.00
27114;DHT22;14648;49.730;8.614;2024-02-26T06:15:01;8.90;52.20
27114;DHT22;14648;49.730;8.614;2024-02-26T06:17:27;8.90;52.20
27114;DHT22;14648;49.730;8.614;2024-02-26T06:19:53;9.00;52.20
27114;DHT22;14648;49.730;8.614;2024-02-26T06:22:19;9.00;52.20
27114;DHT22;14648;49.730;8.614;2024-02-26T06:24:45;9.00;52.20
27114;DHT22;14648;49.730;8.614;2024-02-26T06:27:10;9.00;52.40
27114;DHT22;14648;49.730;8.614;2024-02-26T06:29:36;9.00;52.40
27114;DHT22;14648;49.730;8.614;2024-02-26T06:32:02;9.00;52.40
27114;DHT22;14648;49.730;8.614;2024-02-26T06:34:28;9.00;52.40
27114;DHT22;14648;49.730;8.614;2024-02-26T06:36:53;9.10;52.60
27114;DHT22;14648;49.730;8.614;2024-02-26T06:39:19;9.10;52.70
27114;DHT22;14648;49.730;8.614;2024-02-26T06:41:45;9.10;52.80
27114;DHT22;14648;49.730;8.614;2024-02-26T06:44:13;9.10;52.80
27114;DHT22;14648;49.730;8.614;2024-02-26T06:46:38;9.10;52.80
27114;DHT22;14648;49.730;8.614;2024-02-26T06:49:05;9.10;52.90
27114;DHT22;14648;49.730;8.614;2024-02-26T06:51:31;9.10;53.00
27114;DHT22;14648;49.730;8.614;2024-02-26T06:53:56;9.20;52.90
27114;DHT22;14648;49.730;8.614;2024-02-26T06:56:23;9.20;53.00
27114;DHT22;14648;49.730;8.614;2024-02-26T06:58:49;9.20;53.00
27114;DHT22;14648;49.730;8.614;2024-02-26T07:01:14;9.20;53.00
27114;DHT22;14648;49.730;8.614;2024-02-26T07:03:40;9.20;53.00
27114;DHT22;14648;49.730;8.614;2024-02-26T07:06:06;9.20;53.10
27114;DHT22;14648;49.730;8.614;2024-02-26T07:08:32;9.30;53.20
27114;DHT22;14648;49.730;8.614;2024-02-26T07:10:58;9.30;53.20
27114;DHT22;14648;49.730;8.614;2024-02-26T07:13:24;9.30;53.20
27114;DHT22;14648;49.730;8.614;2024-02-26T07:15:52;9.20;53.20
27114;DHT22;14648;49.730;8.614;2024-02-26T07:18:18;9.30;53.30
27114;DHT22;14648;49.730;8.614;2024-02-26T07:20:46;9.30;53.40
27114;DHT22;14648;49.730;8.614;2024-02-26T07:23:12;9.30;53.50
27114;DHT22;14648;49.730;8.614;2024-02-26T07:25:38;9.30;53.70
27114;DHT22;14648;49.730;8.614;2024-02-26T07:28:04;9.30;53.70
27114;DHT22;14648;49.730;8.614;2024-02-26T07:30:30;9.30;53.90
27114;DHT22;14648;49.730;8.614;2024-02-26T07:32:56;9.30;54.00
27114;DHT22;14648;49.730;8.614;2024-02-26T07:35:22;9.30;54.00
27114;DHT22;14648;49.730;8.614;2024-02-26T07:37:48;9.30;54.10
27114;DHT22;14648;49.730;8.614;2024-02-26T07:40:15;9.30;54.20
27114;DHT22;14648;49.730;8.614;2024-02-26T07:42:41;9.30;54.30
27114;DHT22;14648;49.730;8.614;2024-02-26T07:45:07;9.40;54.40
27114;DHT22;14648;49.730;8.614;2024-02-26T07:47:32;9.40;54.50
27114;DHT22;14648;49.730;8.614;2024-02-26T07:50:00;9.40;54.50
27114;DHT22;14648;49.730;8.614;2024-02-26T07:52:25;9.40;54.50
27114;DHT22;14648;49.730;8.614;2024-02-26T07:54:51;9.40;54.60
27114;DHT22;14648;49.730;8.614;2024-02-26T07:57:17;9.50;54.70
27114;DHT22;14648;49.730;8.614;2024-02-26T07:59:43;9.50;54.80
27114;DHT22;14648;49.730;8.614;2024-02-26T08:02:10;9.50;54.70
27114;DHT22;14648;49.730;8.614;2024-02-26T08:04:36;9.50;54.70
27114;DHT22;14648;49.730;8.614;2024-02-26T08:07:01;9.60;54.70
27114;DHT22;14648;49.730;8.614;2024-02-26T08:09:28;9.50;54.70
27114;DHT22;14648;49.730;8.614;2024-02-26T08:11:53;9.50;54.70
27114;DHT22;14648;49.730;8.614;2024-02-26T08:14:20;9.50;54.70
27114;DHT22;14648;49.730;8.614;2024-02-26T08:16:45;9.50;54.70
27114;DHT22;14648;49.730;8.614;2024-02-26T08:19:11;9.50;54.90
27114;DHT22;14648;49.730;8.614;2024-02-26T08:21:39;9.50;54.90
27114;DHT22;14648;49.730;8.614;2024-02-26T08:24:05;9.50;55.00
27114;DHT22;14648;49.730;8.614;2024-02-26T08:26:31;9.60;55.10
27114;DHT22;14648;49.730;8.614;2024-02-26T08:28:57;9.60;55.10
27114;DHT22;14648;49.730;8.614;2024-02-26T08:31:23;9.70;55.30
27114;DHT22;14648;49.730;8.614;2024-02-26T08:33:49;9.70;55.40
27114;DHT22;14648;49.730;8.614;2024-02-26T08:36:15;9.70;55.40
27114;DHT22;14648;49.730;8.614;2024-02-26T08:38:41;9.70;55.40
27114;DHT22;14648;49.730;8.614;2024-02-26T08:41:07;9.80;55.50
27114;DHT22;14648;49.730;8.614;2024-02-26T08:43:32;9.80;55.50
27114;DHT22;14648;49.730;8.614;2024-02-26T08:45:58;9.80;55.50
27114;DHT22;14648;49.730;8.614;2024-02-26T08:48:24;9.90;55.80
27114;DHT22;14648;49.730;8.614;2024-02-26T08:50:50;9.90;55.80
27114;DHT22;14648;49.730;8.614;2024-02-26T08:53:15;10.00;55.90
27114;DHT22;14648;49.730;8.614;2024-02-26T08:55:41;10.00;56.00
27114;DHT22;14648;49.730;8.614;2024-02-26T08:58:07;10.10;56.10
27114;DHT22;14648;49.730;8.614;2024-02-26T09:00:33;10.10;56.20
27114;DHT22;14648;49.730;8.614;2024-02-26T09:02:59;10.30;56.30
27114;DHT22;14648;49.730;8.614;2024-02-26T09:05:24;10.30;56.40
27114;DHT22;14648;49.730;8.614;2024-02-26T09:07:50;10.40;56.50
27114;DHT22;14648;49.730;8.614;2024-02-26T09:10:17;10.50;56.60
27114;DHT22;14648;49.730;8.614;2024-02-26T09:12:43;10.60;56.70
27114;DHT22;14648;49.730;8.614;2024-02-26T09:15:09;10.70;56.80
27114;DHT22;14648;49.730;8.614;2024-02-26T09:17:35;10.80;56.80
27114;DHT22;14648;49.730;8.614;2024-02-26T09:20:02;10.80;56.80
27114;DHT22;14648;49.730;8.614;2024-02-26T09:22:29;10.80;56.90
27114;DHT22;14648;49.730;8.614;2024-02-26T09:24:54;10.90;57.00
27114;DHT22;14648;49.730;8.614;2024-02-26T09:27:20;10.90;57.10
27114;DHT22;14648;49.730;8.614;2024-02-26T09:29:46;11.00;57.10
27114;DHT22;14648;49.730;8.614;2024-02-26T09:32:13;11.00;57.20
27114;DHT22;14648;49.730;8.614;2024-02-26T09:34:40;11.00;57.20
27114;DHT22;14648;49.730;8.614;2024-02-26T09:37:06;11.10;57.40
27114;DHT22;14648;49.730;8.614;2024-02-26T09:39:32;11.20;57.30
27114;DHT22;14648;49.730;8.614;2024-02-26T09:42:00;11.30;57.40
27114;DHT22;14648;49.730;8.614;2024-02-26T09:44:30;11.40;57.40
27114;DHT22;14648;49.730;8.614;2024-02-26T09:46:59;11.50;57.50
27114;DHT22;14648;49.730;8.614;2024-02-26T09:49:24;11.60;57.50
27114;DHT22;14648;49.730;8.614;2024-02-26T09:51:51;11.70;57.70
27114;DHT22;14648;49.730;8.614;2024-02-26T09:54:31;11.80;57.80
27114;DHT22;14648;49.730;8.614;2024-02-26T09:57:02;11.90;57.90
27114;DHT22;14648;49.730;8.614;2024-02-26T09:59:50;12.00;58.00
27114;DHT22;14648;49.730;8.614;2024-02-26T10:02:38;12.00;58.10
27114;DHT22;14648;49.730;8.614;2024-02-26T10:05:19;12.10;58.30
27114;DHT22;14648;49.730;8.614;2024-02-26T10:07:51;12.30;58.40
27114;DHT22;14648;49.730;8.614;2024-02-26T10:13:50;12.40;58.40
27114;DHT22;14648;49.730;8.614;2024-02-26T10:16:16;12.60;58.50
27114;DHT22;14648;49.730;8.614;2024-02-26T10:18:53;12.60;58.50
27114;DHT22;14648;49.730;8.614;2024-02-26T10:21:20;12.80;58.60
27114;DHT22;14648;49.730;8.614;2024-02-26T10:23:47;12.80;58.50
27114;DHT22;14648;49.730;8.614;2024-02-26T10:26:20;12.90;58.50
27114;DHT22;14648;49.730;8.614;2024-02-26T10:28:48;13.00;58.40
27114;DHT22;14648;49.730;8.614;2024-02-26T10:31:14;13.00;58.40
27114;DHT22;14648;49.730;8.614;2024-02-26T10:33:42;13.00;58.50
27114;DHT22;14648;49.730;8.614;2024-02-26T10:36:08;13.00;58.40
27114;DHT22;14648;49.730;8.614;2024-02-26T10:38:35;13.00;58.30
27114;DHT22;14648;49.730;8.614;2024-02-26T10:41:03;13.10;58.40
27114;DHT22;14648;49.730;8.614;2024-02-26T10:43:30;13.10;58.30
27114;DHT22;14648;49.730;8.614;2024-02-26T10:45:56;13.20;58.10
27114;DHT22;14648;49.730;8.614;2024-02-26T10:48:22;13.20;58.00
27114;DHT22;14648;49.730;8.614;2024-02-26T10:50:48;13.30;58.00
27114;DHT22;14648;49.730;8.614;2024-02-26T10:53:17;13.40;58.00
27114;DHT22;14648;49.730;8.614;2024-02-26T10:55:49;13.40;57.90
27114;DHT22;14648;49.730;8.614;2024-02-26T10:58:20;13.50;57.70
27114;DHT22;14648;49.730;8.614;2024-02-26T11:00:48;13.50;57.80
27114;DHT22;14648;49.730;8.614;2024-02-26T11:03:15;13.60;57.80
27114;DHT22;14648;49.730;8.614;2024-02-26T11:05:48;13.70;57.80
27114;DHT22;14648;49.730;8.614;2024-02-26T11:08:17;13.80;57.60
27114;DHT22;14648;49.730;8.614;2024-02-26T11:10:43;13.80;57.40
27114;DHT22;14648;49.730;8.614;2024-02-26T11:13:14;13.90;57.40
27114;DHT22;14648;49.730;8.614;2024-02-26T11:15:43;14.00;57.30
27114;DHT22;14648;49.730;8.614;2024-02-26T11:18:10;14.00;57.20
27114;DHT22;14648;49.730;8.614;2024-02-26T11:20:46;14.10;57.30
27114;DHT22;14648;49.730;8.614;2024-02-26T11:23:12;14.20;57.20
27114;DHT22;14648;49.730;8.614;2024-02-26T11:25:38;14.40;57.20
27114;DHT22;14648;49.730;8.614;2024-02-26T11:28:15;14.60;57.20
27114;DHT22;14648;49.730;8.614;2024-02-26T11:30:46;14.80;57.00
27114;DHT22;14648;49.730;8.614;2024-02-26T11:33:15;15.00;57.00
27114;DHT22;14648;49.730;8.614;2024-02-26T11:35:41;15.20;56.90
27114;DHT22;14648;49.730;8.614;2024-02-26T11:38:07;15.30;56.80
27114;DHT22;14648;49.730;8.614;2024-02-26T11:40:37;15.40;56.80
27114;DHT22;14648;49.730;8.614;2024-02-26T11:43:05;15.40;56.50
27114;DHT22;14648;49.730;8.614;2024-02-26T11:48:15;15.60;56.40
27114;DHT22;14648;49.730;8.614;2024-02-26T11:50:46;15.60;56.30
27114;DHT22;14648;49.730;8.614;2024-02-26T11:53:25;15.60;56.20
27114;DHT22;14648;49.730;8.614;2024-02-26T11:58:43;15.60;56.00
27114;DHT22;14648;49.730;8.614;2024-02-26T12:01:41;15.60;56.10
27114;DHT22;14648;49.730;8.614;2024-02-26T12:04:28;15.60;55.80
27114;DHT22;14648;49.730;8.614;2024-02-26T12:06:57;15.50;55.70
27114;DHT22;14648;49.730;8.614;2024-02-26T12:09:48;15.40;55.70
27114;DHT22;14648;49.730;8.614;2024-02-26T12:12:18;15.40;55.60
27114;DHT22;14648;49.730;8.614;2024-02-26T12:14:56;15.50;55.70
27114;DHT22;14648;49.730;8.614;2024-02-26T12:17:24;15.50;55.50
27114;DHT22;14648;49.730;8.614;2024-02-26T12:19:51;15.60;55.40
27114;DHT22;14648;49.730;8.614;2024-02-26T12:22:18;15.70;55.20
27114;DHT22;14648;49.730;8.614;2024-02-26T12:24:45;15.70;55.30
27114;DHT22;14648;49.730;8.614;2024-02-26T12:27:11;15.80;55.20
27114;DHT22;14648;49.730;8.614;2024-02-26T12:29:37;15.80;55.00
27114;DHT22;14648;49.730;8.614;2024-02-26T12:32:06;15.90;54.80
27114;DHT22;14648;49.730;8.614;2024-02-26T12:34:32;15.90;54.60
27114;DHT22;14648;49.730;8.614;2024-02-26T12:36:58;16.10;54.60
27114;DHT22;14648;49.730;8.614;2024-02-26T12:39:24;16.10;54.60
27114;DHT22;14648;49.730;8.614;2024-02-26T12:41:50;16.10;54.40
27114;DHT22;14648;49.730;8.614;2024-02-26T12:44:16;16.10;54.40
27114;DHT22;14648;49.730;8.614;2024-02-26T12:46:42;16.10;54.30
27114;DHT22;14648;49.730;8.614;2024-02-26T12:49:08;16.20;54.30
27114;DHT22;14648;49.730;8.614;2024-02-26T12:51:40;16.20;54.10
27114;DHT22;14648;49.730;8.614;2024-02-26T12:54:07;16.30;54.20
27114;DHT22;14648;49.730;8.614;2024-02-26T12:56:34;16.40;54.00
27114;DHT22;14648;49.730;8.614;2024-02-26T12:59:00;16.40;54.00
27114;DHT22;14648;49.730;8.614;2024-02-26T13:01:28;16.30;53.80
27114;DHT22;14648;49.730;8.614;2024-02-26T13:03:54;16.20;53.70
27114;DHT22;14648;49.730;8.614;2024-02-26T13:06:20;16.10;53.70
27114;DHT22;14648;49.730;8.614;2024-02-26T13:08:49;16.10;53.60
27114;DHT22;14648;49.730;8.614;2024-02-26T13:11:15;16.00;53.50
27114;DHT22;14648;49.730;8.614;2024-02-26T13:13:41;15.90;53.50
27114;DHT22;14648;49.730;8.614;2024-02-26T13:16:10;15.90;53.50
27114;DHT22;14648;49.730;8.614;2024-02-26T13:18:39;15.90;53.50
27114;DHT22;14648;49.730;8.614;2024-02-26T13:21:15;16.10;53.40
27114;DHT22;14648;49.730;8.614;2024-02-26T13:23:42;16.30;53.30
27114;DHT22;14648;49.730;8.614;2024-02-26T13:26:12;16.40;54.00
27114;DHT22;14648;49.730;8.614;2024-02-26T13:28:38;16.70;54.10
27114;DHT22;14648;49.730;8.614;2024-02-26T13:31:05;17.10;53.40
27114;DHT22;14648;49.730;8.614;2024-02-26T13:33:33;17.40;53.10
27114;DHT22;14648;49.730;8.614;2024-02-26T13:35:59;17.80;53.00
27114;DHT22;14648;49.730;8.614;2024-02-26T13:38:27;18.10;52.80
27114;DHT22;14648;49.730;8.614;2024-02-26T13:40:54;18.20;53.30
27114;DHT22;14648;49.730;8.614;2024-02-26T13:43:20;18.30;52.70
27114;DHT22;14648;49.730;8.614;2024-02-26T13:45:46;18.10;52.80
27114;DHT22;14648;49.730;8.614;2024-02-26T13:48:14;17.90;52.90
27114;DHT22;14648;49.730;8.614;2024-02-26T13:50:43;17.70;53.20
27114;DHT22;14648;49.730;8.614;2024-02-26T13:53:11;17.50;53.10
27114;DHT22;14648;49.730;8.614;2024-02-26T13:55:38;17.20;53.10
27114;DHT22;14648;49.730;8.614;2024-02-26T13:58:05;17.00;53.20
27114;DHT22;14648;49.730;8.614;2024-02-26T14:00:32;16.70;53.10
27114;DHT22;14648;49.730;8.614;2024-02-26T14:03:00;16.50;53.20
27114;DHT22;14648;49.730;8.614;2024-02-26T14:05:29;16.40;53.10
27114;DHT22;14648;49.730;8.614;2024-02-26T14:07:55;16.30;53.20
27114;DHT22;14648;49.730;8.614;2024-02-26T14:10:21;16.20;53.20
27114;DHT22;14648;49.730;8.614;2024-02-26T14:12:47;16.20;53.20
27114;DHT22;14648;49.730;8.614;2024-02-26T14:15:12;16.30;53.20
27114;DHT22;14648;49.730;8.614;2024-02-26T14:17:38;16.40;53.10
27114;DHT22;14648;49.730;8.614;2024-02-26T14:20:04;16.40;53.20
27114;DHT22;14648;49.730;8.614;2024-02-26T14:22:30;16.60;53.20
27114;DHT22;14648;49.730;8.614;2024-02-26T14:24:57;16.70;53.10
27114;DHT22;14648;49.730;8.614;2024-02-26T14:27:23;16.80;52.90
27114;DHT22;14648;49.730;8.614;2024-02-26T14:29:49;16.80;52.90
27114;DHT22;14648;49.730;8.614;2024-02-26T14:32:18;16.70;52.80
27114;DHT22;14648;49.730;8.614;2024-02-26T14:34:43;16.60;52.70
27114;DHT22;14648;49.730;8.614;2024-02-26T14:37:09;16.50;52.80
27114;DHT22;14648;49.730;8.614;2024-02-26T14:39:35;16.50;52.80
27114;DHT22;14648;49.730;8.614;2024-02-26T14:42:01;16.40;52.80
27114;DHT22;14648;49.730;8.614;2024-02-26T14:44:27;16.30;52.80
27114;DHT22;14648;49.730;8.614;2024-02-26T14:46:53;16.20;52.70
27114;DHT22;14648;49.730;8.614;2024-02-26T14:49:18;16.20;52.70
27114;DHT22;14648;49.730;8.614;2024-02-26T14:51:45;16.20;52.70
27114;DHT22;14648;49.730;8.614;2024-02-26T14:54:11;16.20;52.70
27114;DHT22;14648;49.730;8.614;2024-02-26T14:56:37;16.20;52.70
27114;DHT22;14648;49.730;8.614;2024-02-26T14:59:03;16.40;53.20
27114;DHT22;14648;49.730;8.614;2024-02-26T15:01:29;16.50;52.70
27114;DHT22;14648;49.730;8.614;2024-02-26T15:03:55;16.50;52.30
27114;DHT22;14648;49.730;8.614;2024-02-26T15:06:23;16.50;52.20
27114;DHT22;14648;49.730;8.614;2024-02-26T15:08:49;16.40;52.20
27114;DHT22;14648;49.730;8.614;2024-02-26T15:11:15;16.40;52.40
27114;DHT22;14648;49.730;8.614;2024-02-26T15:13:41;16.40;52.30
27114;DHT22;14648;49.730;8.614;2024-02-26T15:16:07;16.30;52.40
27114;DHT22;14648;49.730;8.614;2024-02-26T15:18:33;16.30;52.40
27114;DHT22;14648;49.730;8.614;2024-02-26T15:20:58;16.30;52.30
27114;DHT22;14648;49.730;8.614;2024-02-26T15:23:24;16.20;52.30
27114;DHT22;14648;49.730;8.614;2024-02-26T15:25:50;16.10;52.20
27114;DHT22;14648;49.730;8.614;2024-02-26T15:28:16;16.00;52.10
27114;DHT22;14648;49.730;8.614;2024-02-26T15:30:42;15.90;52.00
27114;DHT22;14648;49.730;8.614;2024-02-26T15:33:08;15.80;51.90
27114;DHT22;14648;49.730;8.614;2024-02-26T15:35:34;15.80;51.70
27114;DHT22;14648;49.730;8.614;2024-02-26T15:38:00;15.60;51.60
27114;DHT22;14648;49.730;8.614;2024-02-26T15:40:26;15.50;51.60
27114;DHT22;14648;49.730;8.614;2024-02-26T15:42:52;15.40;51.50
27114;DHT22;14648;49.730;8.614;2024-02-26T15:45:18;15.30;51.50